createdAt,value
2023-04-22T00:00:36.459Z,13.60
2023-04-22T00:03:05.725Z,13.70
2023-04-22T00:05:33.630Z,15.37
2023-04-22T00:08:01.815Z,15.40
2023-04-22T00:10:29.522Z,16.07
2023-04-22T00:12:57.212Z,14.93
2023-04-22T00:15:26.611Z,12.57
2023-04-22T00:17:54.582Z,14.30
2023-04-22T00:20:23.878Z,15.53
2023-04-22T00:22:51.679Z,16.20
2023-04-22T00:25:19.484Z,14.40
2023-04-22T00:27:47.267Z,17.57
2023-04-22T00:30:15.318Z,14.63
2023-04-22T00:32:43.157Z,18.23
2023-04-22T00:35:11.115Z,17.87
2023-04-22T00:37:40.250Z,18.40
2023-04-22T00:40:09.333Z,16.97
2023-04-22T00:42:38.362Z,17.13
2023-04-22T00:45:06.979Z,17.50
2023-04-22T00:47:34.743Z,15.67
2023-04-22T00:50:02.721Z,14.07
2023-04-22T00:52:30.496Z,15.23
2023-04-22T00:54:59.567Z,18.00
2023-04-22T00:57:27.812Z,15.80
2023-04-22T00:59:55.512Z,16.43
2023-04-22T01:02:23.405Z,16.80
2023-04-22T01:04:51.194Z,17.33
2023-04-22T01:07:18.966Z,16.60
2023-04-22T01:09:46.959Z,14.93
2023-04-22T01:12:15.942Z,16.50
2023-04-22T01:14:43.740Z,18.53
2023-04-22T01:17:13.858Z,17.60
2023-04-22T01:19:42.592Z,13.63
2023-04-22T01:22:13.022Z,15.73
2023-04-22T01:24:42.302Z,16.63
2023-04-22T01:27:10.515Z,14.53
2023-04-22T01:29:39.174Z,15.50
2023-04-22T01:32:07.673Z,18.57
2023-04-22T01:34:35.561Z,18.43
2023-04-22T01:37:03.361Z,16.20
2023-04-22T01:39:31.481Z,15.20
2023-04-22T01:42:02.183Z,17.97
2023-04-22T01:44:30.057Z,19.23
2023-04-22T01:46:57.869Z,15.10
2023-04-22T01:49:25.566Z,15.53
2023-04-22T01:51:53.301Z,15.13
2023-04-22T01:54:21.034Z,16.50
2023-04-22T01:56:52.654Z,17.50
2023-04-22T01:59:22.034Z,16.37
2023-04-22T02:01:50.137Z,16.77
2023-04-22T02:04:18.009Z,18.27
2023-04-22T02:06:45.714Z,19.50
2023-04-22T02:09:13.419Z,16.63
2023-04-22T02:11:41.077Z,14.97
2023-04-22T02:14:08.808Z,17.57
2023-04-22T02:16:37.854Z,18.47
2023-04-22T02:19:05.526Z,14.47
2023-04-22T02:21:33.423Z,16.47
2023-04-22T02:24:01.184Z,17.50
2023-04-22T02:26:30.560Z,19.07
2023-04-22T02:28:58.238Z,18.63
2023-04-22T02:31:26.161Z,22.50
2023-04-22T02:33:55.360Z,23.63
2023-04-22T02:36:23.077Z,21.53
2023-04-22T02:38:50.949Z,19.77
2023-04-22T02:41:18.731Z,20.97
2023-04-22T02:43:47.004Z,20.10
2023-04-22T02:46:16.229Z,21.67
2023-04-22T02:48:44.198Z,23.57
2023-04-22T02:51:13.478Z,23.43
2023-04-22T02:53:41.227Z,28.97
2023-04-22T02:56:09.600Z,24.30
2023-04-22T02:58:37.312Z,22.50
2023-04-22T03:01:05.150Z,22.83
2023-04-22T03:03:33.078Z,23.00
2023-04-22T03:06:00.981Z,25.00
2023-04-22T03:08:30.067Z,26.93
2023-04-22T03:10:57.824Z,28.90
2023-04-22T03:13:25.602Z,24.73
2023-04-22T03:15:53.393Z,27.53
2023-04-22T03:18:21.099Z,28.13
2023-04-22T03:20:49.152Z,28.10
2023-04-22T03:23:16.974Z,26.00
2023-04-22T03:25:46.097Z,28.53
2023-04-22T03:28:13.849Z,25.17
2023-04-22T03:30:41.633Z,26.10
2023-04-22T03:33:09.472Z,29.07
2023-04-22T03:35:37.202Z,25.27
2023-04-22T03:38:04.940Z,34.47
2023-04-22T03:40:32.619Z,31.30
2023-04-22T03:43:01.683Z,29.00
2023-04-22T03:45:30.098Z,31.93
2023-04-22T03:47:57.889Z,28.03
2023-04-22T03:50:26.151Z,30.97
2023-04-22T03:52:53.854Z,34.33
2023-04-22T03:55:21.722Z,32.23
2023-04-22T03:57:49.453Z,33.63
2023-04-22T04:00:18.754Z,30.67
2023-04-22T04:02:46.809Z,30.67
2023-04-22T04:05:15.021Z,31.30
2023-04-22T04:07:42.722Z,34.17
2023-04-22T04:10:12.289Z,31.20
2023-04-22T04:12:39.957Z,34.50
2023-04-22T04:15:08.873Z,31.87
2023-04-22T04:17:37.926Z,31.73
2023-04-22T04:20:07.115Z,34.90
2023-04-22T04:22:35.146Z,31.97
2023-04-22T04:25:03.418Z,34.63
2023-04-22T04:27:31.075Z,37.47
2023-04-22T04:29:58.743Z,34.57
2023-04-22T04:32:27.034Z,34.57
2023-04-22T04:34:57.649Z,34.37
2023-04-22T04:37:25.318Z,34.57
2023-04-22T04:39:53.718Z,36.33
2023-04-22T04:42:24.425Z,37.17
2023-04-22T04:44:52.134Z,40.33
2023-04-22T04:47:20.114Z,38.00
2023-04-22T04:49:47.803Z,37.53
2023-04-22T04:52:16.863Z,38.67
2023-04-22T04:54:44.604Z,39.67
2023-04-22T04:57:12.272Z,38.70
2023-04-22T04:59:40.155Z,37.00
2023-04-22T05:02:08.535Z,38.80
2023-04-22T05:04:36.372Z,35.97
2023-04-22T05:07:04.320Z,40.53
2023-04-22T05:09:37.409Z,38.23
2023-04-22T05:12:05.735Z,37.70
2023-04-22T05:14:33.474Z,34.10
2023-04-22T05:17:01.422Z,31.43
2023-04-22T05:19:29.081Z,32.67
2023-04-22T05:21:56.776Z,32.00
2023-04-22T05:24:24.406Z,30.47
2023-04-22T05:26:53.437Z,27.73
2023-04-22T05:29:21.073Z,27.07
2023-04-22T05:31:48.804Z,24.63
2023-04-22T05:34:16.620Z,27.80
2023-04-22T05:36:44.387Z,23.53
2023-04-22T05:39:12.912Z,25.73
2023-04-22T05:41:40.643Z,24.73
2023-04-22T05:44:09.674Z,23.93
2023-04-22T05:46:37.457Z,22.03
2023-04-22T05:49:05.197Z,24.60
2023-04-22T05:51:32.945Z,24.40
2023-04-22T05:54:01.064Z,22.63
2023-04-22T05:56:29.079Z,20.87
2023-04-22T05:58:56.801Z,20.87
2023-04-22T06:01:25.941Z,21.60
2023-04-22T06:03:53.730Z,18.63
2023-04-22T06:06:21.635Z,20.53
2023-04-22T06:08:49.342Z,20.47
2023-04-22T06:11:17.080Z,23.60
2023-04-22T06:13:44.716Z,20.10
2023-04-22T06:16:12.444Z,20.60
2023-04-22T06:18:43.468Z,20.60
2023-04-22T06:21:11.468Z,20.83
2023-04-22T06:23:39.312Z,20.00
2023-04-22T06:26:07.144Z,17.93
2023-04-22T06:28:34.845Z,20.23
2023-04-22T06:31:03.469Z,17.17
2023-04-22T06:33:31.206Z,17.87
2023-04-22T06:36:00.260Z,17.50
2023-04-22T06:38:27.992Z,16.30
2023-04-22T06:40:55.646Z,14.37
2023-04-22T06:43:23.288Z,15.83
2023-04-22T06:45:51.366Z,13.43
2023-04-22T06:48:19.118Z,13.30
2023-04-22T06:50:46.785Z,15.33
2023-04-22T06:53:16.004Z,15.73
2023-04-22T06:55:43.723Z,13.97
2023-04-22T06:58:11.390Z,16.30
2023-04-22T07:00:39.023Z,13.83
2023-04-22T07:03:06.759Z,20.17
2023-04-22T07:05:34.674Z,15.37
2023-04-22T07:08:02.338Z,14.90
2023-04-22T07:10:31.446Z,16.40
2023-04-22T07:12:59.070Z,13.47
2023-04-22T07:15:26.831Z,12.67
2023-04-22T07:17:54.624Z,14.93
2023-04-22T07:20:22.423Z,14.47
2023-04-22T07:22:50.156Z,13.37
2023-04-22T07:25:18.039Z,12.70
2023-04-22T07:27:47.173Z,15.23
2023-04-22T07:30:15.213Z,9.70
2023-04-22T07:32:42.882Z,10.27
2023-04-22T07:35:10.945Z,9.87
2023-04-22T07:37:38.677Z,13.83
2023-04-22T07:40:11.668Z,11.03
2023-04-22T07:42:39.726Z,10.50
2023-04-22T07:45:09.752Z,12.47
2023-04-22T07:47:37.559Z,10.60
2023-04-22T07:50:49.987Z,10.10
2023-04-22T07:53:17.746Z,10.33
2023-04-22T07:55:46.288Z,10.97
2023-04-22T07:58:13.959Z,10.17
2023-04-22T08:00:41.694Z,12.60
2023-04-22T08:03:09.795Z,10.70
2023-04-22T08:05:37.716Z,9.17
2023-04-22T08:08:07.249Z,10.77
2023-04-22T08:10:34.931Z,10.63
2023-04-22T08:13:02.710Z,10.53
2023-04-22T08:15:30.619Z,9.70
2023-04-22T08:17:58.464Z,8.37
2023-04-22T08:20:26.813Z,8.70
2023-04-22T08:22:58.180Z,10.40
2023-04-22T08:25:27.437Z,8.40
2023-04-22T08:27:55.152Z,8.97
2023-04-22T08:30:22.928Z,9.27
2023-04-22T08:32:52.998Z,11.63
2023-04-22T08:35:20.816Z,8.77
2023-04-22T08:37:48.599Z,8.87
2023-04-22T08:40:16.325Z,9.83
2023-04-22T08:42:46.261Z,8.33
2023-04-22T08:45:14.685Z,10.97
2023-04-22T08:47:42.530Z,6.90
2023-04-22T08:50:10.776Z,8.63
2023-04-22T08:52:38.736Z,7.27
2023-04-22T08:55:07.597Z,9.37
2023-04-22T08:57:37.335Z,10.17
2023-04-22T09:00:08.725Z,10.70
2023-04-22T09:02:38.126Z,8.80
2023-04-22T09:05:07.672Z,6.40
2023-04-22T09:07:36.459Z,7.37
2023-04-22T09:10:04.326Z,8.50
2023-04-22T09:12:32.081Z,7.97
2023-04-22T09:14:59.747Z,9.03
2023-04-22T09:17:38.166Z,6.07
2023-04-22T09:20:08.796Z,8.07
2023-04-22T09:22:41.148Z,7.30
2023-04-22T09:25:16.807Z,7.57
2023-04-22T09:27:44.635Z,8.60
2023-04-22T09:30:14.702Z,6.80
2023-04-22T09:32:43.808Z,7.10
2023-04-22T09:35:11.603Z,8.17
2023-04-22T09:37:48.887Z,8.60
2023-04-22T09:40:18.023Z,8.00
2023-04-22T09:42:49.938Z,7.03
2023-04-22T09:45:28.465Z,9.90
2023-04-22T09:47:58.456Z,8.30
2023-04-22T09:50:27.786Z,7.83
2023-04-22T09:52:57.142Z,6.73
2023-04-22T09:55:26.354Z,7.93
2023-04-22T09:57:55.136Z,6.63
2023-04-22T10:00:24.153Z,10.93
2023-04-22T10:02:52.069Z,9.97
2023-04-22T10:05:21.893Z,8.53
2023-04-22T10:07:49.736Z,12.53
2023-04-22T10:10:17.575Z,12.87
2023-04-22T10:12:45.638Z,6.67
2023-04-22T10:15:13.431Z,7.00
2023-04-22T10:17:41.688Z,8.37
2023-04-22T10:20:14.456Z,9.97
2023-04-22T10:22:43.989Z,13.63
2023-04-22T10:25:15.511Z,6.20
2023-04-22T10:27:43.220Z,7.47
2023-04-22T10:30:12.561Z,6.70
2023-04-22T10:32:40.337Z,7.20
2023-04-22T10:35:12.996Z,7.13
2023-04-22T10:37:46.021Z,6.57
2023-04-22T10:40:17.232Z,7.87
2023-04-22T10:42:52.236Z,8.07
2023-04-22T10:45:20.864Z,6.77
2023-04-22T10:47:48.621Z,6.60
2023-04-22T10:50:22.653Z,8.47
2023-04-22T10:52:53.814Z,7.27
2023-04-22T10:55:21.781Z,6.83
2023-04-22T10:57:51.221Z,6.60
2023-04-22T11:00:53.011Z,6.00
2023-04-22T11:03:27.652Z,8.83
2023-04-22T11:06:17.399Z,7.10
2023-04-22T11:08:48.130Z,5.20
2023-04-22T11:11:18.510Z,5.83
2023-04-22T11:13:50.576Z,9.03
2023-04-22T11:16:20.470Z,8.27
2023-04-22T11:18:49.384Z,8.90
2023-04-22T11:21:17.366Z,7.40
2023-04-22T11:23:53.006Z,7.63
2023-04-22T11:26:33.981Z,8.57
2023-04-22T11:29:01.766Z,6.53
2023-04-22T11:31:29.444Z,6.77
2023-04-22T11:33:59.912Z,7.60
2023-04-22T11:36:27.690Z,8.70
2023-04-22T11:38:57.154Z,7.97
2023-04-22T11:41:26.034Z,11.03
2023-04-22T11:43:54.846Z,10.30
2023-04-22T11:46:30.084Z,6.63
2023-04-22T11:49:12.758Z,8.73
2023-04-22T11:51:53.430Z,10.67
2023-04-22T11:54:34.778Z,6.00
2023-04-22T11:57:04.373Z,7.13
2023-04-22T11:59:32.162Z,13.90
2023-04-22T12:01:59.913Z,9.70
2023-04-22T12:04:27.714Z,8.50
2023-04-22T12:06:55.486Z,8.60
2023-04-22T12:09:25.825Z,8.10
2023-04-22T12:11:54.955Z,9.00
2023-04-22T12:14:22.800Z,7.50
2023-04-22T12:16:51.788Z,7.87
2023-04-22T12:19:26.801Z,9.87
2023-04-22T12:21:56.603Z,10.30
2023-04-22T12:24:29.027Z,9.97
2023-04-22T12:26:58.727Z,8.30
2023-04-22T12:29:32.527Z,11.20
2023-04-22T12:32:00.472Z,8.20
2023-04-22T12:34:28.229Z,10.50
2023-04-22T12:36:56.362Z,9.73
2023-04-22T12:39:24.140Z,7.27
2023-04-22T12:41:51.836Z,9.73
2023-04-22T12:44:21.726Z,10.30
2023-04-22T12:46:51.350Z,6.40
2023-04-22T12:49:19.148Z,8.43
2023-04-22T12:51:46.929Z,16.63
2023-04-22T12:54:14.619Z,9.67
2023-04-22T12:56:42.327Z,6.23
2023-04-22T12:59:10.013Z,8.57
2023-04-22T13:01:39.231Z,7.70
2023-04-22T13:04:07.597Z,8.00
2023-04-22T13:06:36.293Z,10.77
2023-04-22T13:09:04.426Z,7.50
2023-04-22T13:11:32.277Z,5.50
2023-04-22T13:14:00.024Z,9.23
2023-04-22T13:16:27.818Z,4.63
2023-04-22T13:18:56.891Z,5.37
2023-04-22T13:21:24.616Z,6.97
2023-04-22T13:23:53.171Z,6.93
2023-04-22T13:26:21.042Z,7.43
2023-04-22T13:28:48.826Z,11.70
2023-04-22T13:31:16.783Z,10.00
2023-04-22T13:33:45.077Z,4.70
2023-04-22T13:36:14.132Z,9.47
2023-04-22T13:38:41.907Z,8.00
2023-04-22T13:41:09.684Z,10.63
2023-04-22T13:43:37.961Z,7.03
2023-04-22T13:46:06.552Z,9.90
2023-04-22T13:48:34.272Z,8.43
2023-04-22T13:51:01.950Z,8.67
2023-04-22T13:53:32.379Z,6.20
2023-04-22T13:56:01.198Z,13.97
2023-04-22T13:58:28.919Z,8.07
2023-04-22T14:00:56.611Z,10.50
2023-04-22T14:03:24.792Z,8.27
2023-04-22T14:05:52.786Z,7.27
2023-04-22T14:08:20.513Z,14.40
2023-04-22T14:10:49.662Z,10.77
2023-04-22T14:13:17.433Z,8.00
2023-04-22T14:15:45.152Z,9.47
2023-04-22T14:18:12.932Z,9.33
2023-04-22T14:20:41.207Z,8.07
2023-04-22T14:23:08.897Z,10.63
2023-04-22T14:25:36.622Z,24.47
2023-04-22T14:28:05.721Z,11.43
2023-04-22T14:30:33.630Z,12.63
2023-04-22T14:33:01.579Z,10.20
2023-04-22T14:35:29.769Z,9.60
2023-04-22T14:37:57.476Z,8.57
2023-04-22T14:40:28.118Z,8.97
2023-04-22T14:42:55.902Z,10.50
2023-04-22T14:45:25.497Z,7.53
2023-04-22T14:47:53.848Z,8.97
2023-04-22T14:50:21.812Z,10.77
2023-04-22T14:52:49.631Z,10.07
2023-04-22T14:55:23.113Z,12.77
2023-04-22T14:57:56.811Z,11.97
2023-04-22T15:00:26.754Z,11.30
2023-04-22T15:02:55.288Z,12.07
2023-04-22T15:05:23.662Z,15.50
2023-04-22T15:07:51.480Z,14.10
2023-04-22T15:10:19.598Z,12.00
2023-04-22T15:12:47.337Z,17.47
2023-04-22T15:15:16.096Z,11.57
2023-04-22T15:17:45.724Z,14.93
2023-04-22T15:20:13.877Z,15.83
2023-04-22T15:22:42.205Z,7.60
2023-04-22T15:25:10.909Z,5.87
2023-04-22T15:27:39.121Z,5.90
2023-04-22T15:30:08.530Z,9.77
2023-04-22T15:32:37.120Z,9.13
2023-04-22T15:35:07.351Z,12.20
2023-04-22T15:37:35.181Z,16.97
2023-04-22T15:40:03.652Z,18.80
2023-04-22T15:42:31.439Z,19.73
2023-04-22T15:44:59.226Z,17.73
2023-04-22T15:47:29.046Z,20.70
2023-04-22T15:49:57.391Z,21.60
2023-04-22T15:52:26.429Z,20.13
2023-04-22T15:54:54.154Z,23.80
2023-04-22T15:57:21.850Z,22.50
2023-04-22T15:59:56.259Z,20.00
2023-04-22T16:02:31.077Z,24.77
2023-04-22T16:04:58.906Z,22.47
2023-04-22T16:07:27.975Z,21.57
2023-04-22T16:09:55.724Z,19.33
2023-04-22T16:12:23.852Z,23.07
2023-04-22T16:14:51.692Z,24.53
2023-04-22T16:17:20.137Z,22.33
2023-04-22T16:19:47.911Z,21.77
2023-04-22T16:22:15.739Z,22.60
2023-04-22T16:24:44.757Z,23.10
2023-04-22T16:27:16.256Z,22.33
2023-04-22T16:29:44.494Z,22.43
2023-04-22T16:32:12.168Z,22.07
2023-04-22T16:34:39.948Z,23.13
2023-04-22T16:37:07.798Z,24.80
2023-04-22T16:39:35.532Z,22.63
2023-04-22T16:42:04.666Z,27.03
2023-04-22T16:44:32.391Z,22.63
2023-04-22T16:47:00.186Z,22.77
2023-04-22T16:49:27.871Z,27.00
2023-04-22T16:51:55.710Z,27.20
2023-04-22T16:54:23.493Z,25.70
2023-04-22T16:56:51.186Z,26.43
2023-04-22T16:59:20.255Z,27.87
2023-04-22T17:01:48.056Z,27.33
2023-04-22T17:04:16.104Z,25.60
2023-04-22T17:06:45.717Z,24.27
2023-04-22T17:09:13.465Z,24.27
2023-04-22T17:11:41.210Z,23.67
2023-04-22T17:14:08.953Z,25.13
2023-04-22T17:16:38.404Z,24.60
2023-04-22T17:19:06.081Z,23.67
2023-04-22T17:21:34.212Z,24.83
2023-04-22T17:24:03.813Z,25.23
2023-04-22T17:26:31.558Z,25.00
2023-04-22T17:28:59.324Z,27.20
2023-04-22T17:31:27.546Z,25.13
2023-04-22T17:33:56.671Z,22.60
2023-04-22T17:36:24.469Z,20.73
2023-04-22T17:38:52.189Z,19.17
2023-04-22T17:41:19.863Z,21.57
2023-04-22T17:43:47.587Z,20.70
2023-04-22T17:46:15.783Z,18.47
2023-04-22T17:48:46.529Z,20.93
2023-04-22T17:51:15.842Z,19.83
2023-04-22T17:53:43.560Z,18.60
2023-04-22T17:56:11.353Z,18.33
2023-04-22T17:58:39.185Z,19.13
2023-04-22T18:01:07.328Z,15.90
2023-04-22T18:03:35.678Z,17.67
2023-04-22T18:06:03.547Z,15.47
2023-04-22T18:08:32.637Z,18.03
2023-04-22T18:11:02.096Z,18.17
2023-04-22T18:13:29.834Z,15.70
2023-04-22T18:15:57.482Z,15.90
2023-04-22T18:18:25.232Z,16.07
2023-04-22T18:20:53.034Z,12.20
2023-04-22T18:23:21.204Z,16.07
2023-04-22T18:25:50.309Z,13.13
2023-04-22T18:28:18.067Z,12.07
2023-04-22T18:30:45.747Z,10.30
2023-04-22T18:33:13.468Z,11.93
2023-04-22T18:35:42.037Z,9.67
2023-04-22T18:38:09.791Z,9.97
2023-04-22T18:40:37.455Z,11.90
2023-04-22T18:43:06.536Z,9.83
2023-04-22T18:45:34.274Z,11.97
2023-04-22T18:48:02.116Z,9.43
2023-04-22T18:50:30.019Z,10.60
2023-04-22T18:52:57.660Z,10.23
2023-04-22T18:55:25.470Z,9.73
2023-04-22T18:57:53.209Z,8.87
2023-04-22T19:00:22.471Z,7.73
2023-04-22T19:02:50.370Z,9.07
2023-04-22T19:05:18.164Z,6.43
2023-04-22T19:07:45.883Z,8.33
2023-04-22T19:10:13.770Z,8.43
2023-04-22T19:12:41.618Z,12.57
2023-04-22T19:15:10.085Z,15.17
2023-04-22T19:17:39.293Z,22.50
2023-04-22T19:20:08.507Z,26.10
2023-04-22T19:22:36.413Z,26.37
2023-04-22T19:25:06.411Z,27.70
2023-04-22T19:27:34.533Z,30.70
2023-04-22T19:30:02.270Z,30.03
2023-04-22T19:32:30.058Z,31.70
2023-04-22T19:34:59.601Z,33.37
2023-04-22T19:37:28.281Z,31.93
2023-04-22T19:39:56.035Z,33.10
2023-04-22T19:42:23.752Z,32.30
2023-04-22T19:44:52.016Z,30.27
2023-04-22T19:47:20.103Z,27.30
2023-04-22T19:49:48.302Z,26.50
2023-04-22T19:52:17.522Z,28.87
2023-04-22T19:54:47.854Z,30.17
2023-04-22T19:57:16.117Z,32.00
2023-04-22T19:59:44.747Z,30.47
2023-04-22T20:02:14.212Z,28.90
2023-04-22T20:04:42.712Z,27.57
2023-04-22T20:07:11.934Z,24.83
2023-04-22T20:09:41.399Z,26.53
2023-04-22T20:12:09.535Z,28.67
2023-04-22T20:14:37.978Z,30.03
2023-04-22T20:17:07.361Z,30.10
2023-04-22T20:19:35.331Z,34.40
2023-04-22T20:22:04.009Z,36.03
2023-04-22T20:24:33.040Z,37.30
2023-04-22T20:27:02.334Z,36.77
2023-04-22T20:29:31.118Z,43.73
2023-04-22T20:31:59.250Z,41.77
2023-04-22T20:34:27.649Z,43.63
2023-04-22T20:36:55.476Z,51.50
2023-04-22T20:39:23.663Z,53.03
2023-04-22T20:41:56.315Z,50.73
2023-04-22T20:44:26.106Z,49.07
2023-04-22T20:46:55.779Z,50.53
2023-04-22T20:49:23.508Z,50.33
2023-04-22T20:51:51.301Z,43.83
2023-04-22T20:54:28.507Z,46.80
2023-04-22T20:56:57.794Z,50.43
2023-04-22T20:59:26.908Z,51.40
2023-04-22T21:01:55.403Z,54.97
2023-04-22T21:04:24.130Z,62.07
2023-04-22T21:06:52.499Z,58.40
2023-04-22T21:09:21.716Z,60.83
2023-04-22T21:11:51.178Z,61.97
2023-04-22T21:14:20.918Z,60.70
2023-04-22T21:16:55.105Z,59.73
2023-04-22T21:19:23.442Z,64.47
2023-04-22T21:21:52.387Z,62.03
2023-04-22T21:24:21.040Z,65.03
2023-04-22T21:26:48.938Z,65.07
2023-04-22T21:29:17.130Z,65.67
2023-04-22T21:31:51.582Z,66.93
2023-04-22T21:34:26.918Z,68.00
2023-04-22T21:36:54.688Z,69.20
2023-04-22T21:39:22.409Z,64.60
2023-04-22T21:41:50.227Z,65.67
2023-04-22T21:44:17.899Z,68.37
2023-04-22T21:46:46.514Z,69.73
2023-04-22T21:49:14.234Z,75.37
2023-04-22T21:51:43.375Z,67.07
2023-04-22T21:54:11.131Z,65.03
2023-04-22T21:56:38.872Z,64.07
2023-04-22T21:59:06.656Z,61.50
2023-04-22T22:01:34.493Z,58.00
2023-04-22T22:04:04.108Z,68.20
2023-04-22T22:06:33.326Z,66.13
2023-04-22T22:09:02.516Z,68.83
2023-04-22T22:11:31.481Z,71.47
2023-04-22T22:13:59.482Z,69.80
2023-04-22T22:16:27.391Z,69.57
2023-04-22T22:18:55.714Z,77.27
2023-04-22T22:21:23.574Z,69.70
2023-04-22T22:23:51.825Z,69.07
2023-04-22T22:26:21.372Z,69.63
2023-04-22T22:28:49.211Z,64.03
2023-04-22T22:31:16.908Z,65.20
2023-04-22T22:33:45.026Z,63.37
2023-04-22T22:36:12.848Z,65.00
2023-04-22T22:38:40.669Z,68.47
2023-04-22T22:41:08.356Z,67.33
2023-04-22T22:43:37.383Z,69.80
2023-04-22T22:46:05.256Z,61.40
2023-04-22T22:48:33.216Z,61.17
2023-04-22T22:51:01.702Z,56.47
2023-04-22T22:53:29.419Z,62.00
2023-04-22T22:55:57.124Z,69.17
2023-04-22T22:58:24.906Z,66.33
2023-04-22T23:00:54.107Z,67.80
2023-04-22T23:03:22.085Z,66.20
2023-04-22T23:05:49.826Z,65.87
2023-04-22T23:08:17.600Z,65.80
2023-04-22T23:10:45.287Z,71.33
2023-04-22T23:13:12.967Z,73.00
2023-04-22T23:15:40.837Z,70.73
2023-04-22T23:18:10.600Z,74.97
2023-04-22T23:20:38.419Z,71.10
2023-04-22T23:23:06.436Z,67.77
2023-04-22T23:25:34.715Z,70.17
2023-04-22T23:28:03.626Z,74.40
2023-04-22T23:30:31.886Z,79.77
2023-04-22T23:33:02.690Z,85.10
2023-04-22T23:35:34.488Z,80.03
2023-04-22T23:38:05.438Z,77.70
2023-04-22T23:40:33.129Z,80.03
2023-04-22T23:43:00.805Z,81.73
2023-04-22T23:45:28.535Z,82.70
2023-04-22T23:47:56.247Z,80.97
2023-04-22T23:50:23.998Z,86.10
2023-04-22T23:52:53.119Z,82.37
2023-04-22T23:55:21.483Z,85.10
2023-04-22T23:57:49.937Z,86.53
